createdAt,value
2022-12-04T00:04:39.235Z,101595.13
2022-12-04T00:10:47.403Z,101589.63
2022-12-04T00:16:51.001Z,101574.00
2022-12-04T00:22:54.366Z,101610.25
2022-12-04T00:28:56.912Z,101603.13
2022-12-04T00:35:01.367Z,101559.84
2022-12-04T00:41:04.834Z,101579.53
2022-12-04T00:47:07.251Z,101580.59
2022-12-04T00:53:09.794Z,101597.44
2022-12-04T00:59:12.282Z,101548.78
2022-12-04T01:05:14.774Z,101580.94
2022-12-04T01:11:28.318Z,101575.97
2022-12-04T01:17:34.817Z,101603.31
2022-12-04T01:23:37.277Z,101593.06
2022-12-04T01:29:39.768Z,101550.25
2022-12-04T01:35:43.975Z,101553.69
2022-12-04T01:41:48.754Z,101604.63
2022-12-04T01:47:57.264Z,101569.53
2022-12-04T01:54:02.741Z,101596.69
2022-12-04T02:00:13.247Z,101600.16
2022-12-04T02:06:15.751Z,101600.00
2022-12-04T02:12:39.315Z,101590.03
2022-12-04T02:18:48.823Z,101570.69
2022-12-04T02:25:00.393Z,101587.75
2022-12-04T02:31:05.928Z,101586.31
2022-12-04T02:37:26.825Z,101535.34
2022-12-04T02:43:43.915Z,101540.69
2022-12-04T02:49:55.032Z,101593.84
2022-12-04T02:56:09.604Z,101596.97
2022-12-04T03:02:20.466Z,101599.19
2022-12-04T03:08:28.927Z,101584.13
2022-12-04T03:14:35.364Z,101592.69
2022-12-04T03:20:39.852Z,101589.44
2022-12-04T03:26:48.365Z,101518.34
2022-12-04T03:33:12.748Z,101587.13
2022-12-04T03:39:43.449Z,101597.91
2022-12-04T03:45:57.025Z,101590.31
2022-12-04T03:52:19.548Z,101567.97
2022-12-04T03:58:28.814Z,101547.56
2022-12-04T04:04:36.725Z,101584.53
2022-12-04T04:10:38.754Z,101555.88
2022-12-04T04:17:11.634Z,101498.03
2022-12-04T04:23:35.210Z,101570.72
2022-12-04T04:29:41.714Z,101598.31
2022-12-04T04:35:55.390Z,101589.53
2022-12-04T04:42:11.737Z,101511.72
2022-12-04T04:48:25.107Z,101604.09
2022-12-04T04:54:31.718Z,101602.31
2022-12-04T05:00:35.227Z,101598.34
2022-12-04T05:06:37.666Z,101527.41
2022-12-04T05:12:47.216Z,101557.56
2022-12-04T05:19:07.698Z,101575.25
2022-12-04T05:25:13.212Z,101602.56
2022-12-04T05:31:17.387Z,101550.94
2022-12-04T05:37:21.155Z,101602.47
2022-12-04T05:43:23.565Z,101611.38
2022-12-04T05:49:27.086Z,101609.88
2022-12-04T05:55:38.789Z,101623.63
2022-12-04T06:01:44.126Z,101495.41
2022-12-04T06:07:46.633Z,101615.97
2022-12-04T06:13:52.082Z,101622.50
2022-12-04T06:20:09.567Z,101627.09
2022-12-04T06:26:14.086Z,101623.75
2022-12-04T06:32:21.109Z,101627.16
2022-12-04T06:38:24.006Z,101636.13
2022-12-04T06:44:26.525Z,101554.94
2022-12-04T06:50:30.980Z,101602.69
2022-12-04T06:56:47.915Z,101617.63
2022-12-04T07:03:00.091Z,101641.63
2022-12-04T07:09:11.539Z,101646.38
2022-12-04T07:15:17.243Z,101641.28
2022-12-04T07:21:22.512Z,101622.00
2022-12-04T07:27:34.006Z,101579.34
2022-12-04T07:33:46.551Z,101648.56
2022-12-04T07:40:01.608Z,101656.44
2022-12-04T07:46:34.722Z,101657.28
2022-12-04T07:52:48.120Z,101637.19
2022-12-04T07:58:50.583Z,101649.63
2022-12-04T08:04:55.195Z,101661.41
2022-12-04T08:11:01.174Z,101634.00
2022-12-04T08:17:07.963Z,101639.47
2022-12-04T08:23:12.564Z,101658.81
2022-12-04T08:29:15.010Z,101618.31
2022-12-04T08:35:17.509Z,101646.25
2022-12-04T08:41:24.452Z,101638.19
2022-12-04T08:47:30.482Z,101652.63
2022-12-04T08:53:34.932Z,101496.03
2022-12-04T08:59:37.375Z,101641.78
2022-12-04T09:05:42.883Z,101620.53
2022-12-04T09:11:52.400Z,101629.19
2022-12-04T09:17:54.903Z,101620.69
2022-12-04T09:24:04.393Z,101628.19
2022-12-04T09:30:09.731Z,101613.50
2022-12-04T09:36:20.453Z,101621.00
2022-12-04T09:42:30.384Z,101609.19
2022-12-04T09:48:39.165Z,101601.50
2022-12-04T09:54:48.901Z,101604.00
2022-12-04T10:00:53.337Z,101600.56
2022-12-04T10:07:14.607Z,101578.22
2022-12-04T10:13:42.555Z,101571.28
2022-12-04T10:19:50.081Z,101593.75
2022-12-04T10:25:59.561Z,101551.06
2022-12-04T10:32:31.965Z,101516.75
2022-12-04T10:39:00.522Z,101572.34
2022-12-04T10:45:06.749Z,101486.78
2022-12-04T10:51:17.801Z,101538.38
2022-12-04T10:57:28.610Z,101499.75
2022-12-04T11:03:39.288Z,101552.25
2022-12-04T11:09:44.539Z,101536.31
2022-12-04T11:15:59.914Z,101529.44
2022-12-04T11:22:30.536Z,101522.03
2022-12-04T11:28:42.858Z,101419.28
2022-12-04T11:34:46.540Z,101515.13
2022-12-04T11:41:11.787Z,101530.19
2022-12-04T11:47:34.144Z,101408.25
2022-12-04T11:53:49.094Z,101515.75
2022-12-04T12:00:32.465Z,101520.50
2022-12-04T12:06:43.633Z,101396.63
2022-12-04T12:13:04.128Z,101506.47
2022-12-04T12:19:32.362Z,101506.97
2022-12-04T12:26:07.929Z,101513.22
2022-12-04T12:32:32.554Z,101510.34
2022-12-04T12:39:02.315Z,101498.78
2022-12-04T12:45:59.223Z,101352.81
2022-12-04T12:52:28.361Z,101486.69
2022-12-04T12:58:49.817Z,101500.50
2022-12-04T13:05:42.979Z,101489.59
2022-12-04T13:11:26.003Z,101441.38
2022-12-04T13:17:41.197Z,101500.06
2022-12-04T13:24:28.111Z,101509.91
2022-12-04T13:31:08.099Z,101476.88
2022-12-04T13:37:23.277Z,101498.19
2022-12-04T13:43:37.766Z,101476.53
2022-12-04T13:49:43.282Z,101493.06
2022-12-04T13:56:04.445Z,101497.38
2022-12-04T14:09:29.131Z,101314.50
2022-12-04T14:15:42.664Z,101506.03
2022-12-04T14:21:53.148Z,101380.38
2022-12-04T14:27:57.397Z,101505.53
2022-12-04T14:34:24.232Z,101513.31
2022-12-04T14:40:38.729Z,101499.41
2022-12-04T14:46:48.312Z,101508.34
2022-12-04T14:52:53.733Z,101509.84
2022-12-04T14:58:56.202Z,101462.22
2022-12-04T15:05:03.735Z,101470.84
2022-12-04T15:11:28.573Z,101507.84
2022-12-04T15:17:34.462Z,101498.47
2022-12-04T15:23:44.419Z,101468.66
2022-12-04T15:29:51.642Z,101496.31
2022-12-04T15:36:07.228Z,101486.88
2022-12-04T15:42:28.839Z,101506.31
2022-12-04T15:48:32.298Z,101508.03
2022-12-04T15:54:41.803Z,101503.22
2022-12-04T16:00:53.125Z,101496.13
2022-12-04T16:06:58.771Z,101484.16
2022-12-04T16:13:06.308Z,101512.50
2022-12-04T16:19:19.768Z,101517.31
2022-12-04T16:25:35.291Z,101517.00
2022-12-04T16:31:40.853Z,101509.34
2022-12-04T16:37:45.689Z,101524.69
2022-12-04T16:43:58.417Z,101507.72
2022-12-04T16:50:08.531Z,101491.03
2022-12-04T16:56:13.230Z,101493.47
2022-12-04T17:02:25.063Z,101478.41
2022-12-04T17:08:29.777Z,101541.44
2022-12-04T17:14:34.302Z,101525.34
2022-12-04T17:20:36.731Z,101551.63
2022-12-04T17:26:39.235Z,101551.81
2022-12-04T17:32:44.903Z,101545.16
2022-12-04T17:38:48.225Z,101506.13
2022-12-04T17:44:52.677Z,101542.69
2022-12-04T17:51:13.002Z,101492.44
2022-12-04T17:57:19.408Z,101439.78
2022-12-04T18:03:22.281Z,101539.25
2022-12-04T18:09:25.659Z,101540.19
2022-12-04T18:15:28.357Z,101545.09
2022-12-04T18:21:35.605Z,101549.91
2022-12-04T18:27:42.054Z,101542.78
2022-12-04T18:33:45.585Z,101516.75
2022-12-04T18:39:54.553Z,101535.53
2022-12-04T18:46:07.875Z,101531.06
2022-12-04T18:52:13.117Z,101539.97
2022-12-04T18:58:17.567Z,101518.50
2022-12-04T19:04:23.053Z,101527.94
2022-12-04T19:10:26.818Z,101548.81
2022-12-04T19:16:32.379Z,101544.63
2022-12-04T19:22:42.044Z,101545.50
2022-12-04T19:28:56.001Z,101252.56
2022-12-04T19:34:59.630Z,101524.88
2022-12-04T19:41:14.043Z,101490.53
2022-12-04T19:47:16.493Z,101538.44
2022-12-04T19:53:18.971Z,101458.97
2022-12-04T19:59:21.453Z,101517.81
2022-12-04T20:05:27.970Z,101534.50
2022-12-04T20:11:31.456Z,101528.75
2022-12-04T20:17:37.005Z,101535.09
2022-12-04T20:23:42.771Z,101525.81
2022-12-04T20:29:44.974Z,101528.47
2022-12-04T20:35:47.405Z,101519.88
2022-12-04T20:41:52.465Z,101502.53
2022-12-04T20:47:55.437Z,101516.63
2022-12-04T20:54:03.027Z,101509.56
2022-12-04T21:00:08.988Z,101506.91
2022-12-04T21:06:19.521Z,101480.84
2022-12-04T21:12:45.346Z,101481.34
2022-12-04T21:18:52.846Z,101471.09
2022-12-04T21:24:58.175Z,101461.91
2022-12-04T21:31:10.884Z,101509.41
2022-12-04T21:37:17.632Z,101482.66
2022-12-04T21:43:28.513Z,101512.44
2022-12-04T21:49:31.304Z,101509.41
2022-12-04T21:55:37.799Z,101490.91
2022-12-04T22:01:40.310Z,101403.38
2022-12-04T22:07:47.468Z,101501.41
2022-12-04T22:13:51.204Z,101489.22
2022-12-04T22:19:56.918Z,101481.50
2022-12-04T22:26:18.256Z,101481.44
2022-12-04T22:32:20.679Z,101475.69
2022-12-04T22:38:23.139Z,101467.66
2022-12-04T22:44:25.673Z,101456.09
2022-12-04T22:50:28.157Z,101471.84
2022-12-04T22:56:33.604Z,101477.84
2022-12-04T23:02:39.826Z,101475.63
2022-12-04T23:08:43.549Z,101422.75
2022-12-04T23:14:48.062Z,101438.13
2022-12-04T23:20:50.552Z,101342.56
2022-12-04T23:26:54.381Z,101475.50
2022-12-04T23:32:56.462Z,101420.44
2022-12-04T23:38:59.902Z,101461.53
2022-12-04T23:45:02.387Z,101441.97
2022-12-04T23:51:06.859Z,101405.13
2022-12-04T23:57:09.337Z,101433.13
